sensor_id;sensor_type;location;lat;lon;timestamp;pressure;altitude;pressure_sealevel;temperature;humidity
69574;BME280;62840;52.366;5.980;2023-07-22T00:02:18;101273.94;;;13.39;63.75
69574;BME280;62840;52.366;5.980;2023-07-22T00:04:46;101274.19;;;13.36;63.89
69574;BME280;62840;52.366;5.980;2023-07-22T00:07:12;101275.31;;;13.33;63.92
69574;BME280;62840;52.366;5.980;2023-07-22T00:09:38;101278.13;;;13.32;64.00
69574;BME280;62840;52.366;5.980;2023-07-22T00:12:05;101278.41;;;13.29;63.85
69574;BME280;62840;52.366;5.980;2023-07-22T00:14:31;101274.28;;;13.25;63.84
69574;BME280;62840;52.366;5.980;2023-07-22T00:16:57;101265.53;;;13.23;64.04
69574;BME280;62840;52.366;5.980;2023-07-22T00:19:22;101275.28;;;13.24;64.26
69574;BME280;62840;52.366;5.980;2023-07-22T00:21:51;101273.31;;;13.26;64.46
69574;BME280;62840;52.366;5.980;2023-07-22T00:24:16;101265.84;;;13.29;64.24
69574;BME280;62840;52.366;5.980;2023-07-22T00:26:42;101271.91;;;13.31;64.29
69574;BME280;62840;52.366;5.980;2023-07-22T00:29:08;101260.25;;;13.32;64.54
69574;BME280;62840;52.366;5.980;2023-07-22T00:31:33;101276.44;;;13.31;64.21
69574;BME280;62840;52.366;5.980;2023-07-22T00:33:59;101274.03;;;13.28;64.44
69574;BME280;62840;52.366;5.980;2023-07-22T00:36:25;101272.47;;;13.25;64.57
69574;BME280;62840;52.366;5.980;2023-07-22T00:38:53;101275.16;;;13.25;64.57
69574;BME280;62840;52.366;5.980;2023-07-22T00:41:19;101272.59;;;13.24;64.73
69574;BME280;62840;52.366;5.980;2023-07-22T00:43:45;101268.22;;;13.23;64.61
69574;BME280;62840;52.366;5.980;2023-07-22T00:46:11;101267.25;;;13.24;64.52
69574;BME280;62840;52.366;5.980;2023-07-22T00:48:38;101271.59;;;13.25;64.93
69574;BME280;62840;52.366;5.980;2023-07-22T00:51:04;101268.22;;;13.23;64.98
69574;BME280;62840;52.366;5.980;2023-07-22T00:53:30;101272.59;;;13.24;64.89
69574;BME280;62840;52.366;5.980;2023-07-22T00:55:59;101260.19;;;13.23;64.90
69574;BME280;62840;52.366;5.980;2023-07-22T00:58:25;101262.84;;;13.23;65.19
69574;BME280;62840;52.366;5.980;2023-07-22T01:00:50;101268.22;;;13.23;65.07
69574;BME280;62840;52.366;5.980;2023-07-22T01:03:16;101257.50;;;13.23;65.18
69574;BME280;62840;52.366;5.980;2023-07-22T01:05:42;101252.13;;;13.23;65.11
69574;BME280;62840;52.366;5.980;2023-07-22T01:08:08;101247.66;;;13.23;65.21
69574;BME280;62840;52.366;5.980;2023-07-22T01:10:34;101248.50;;;13.24;65.13
69574;BME280;62840;52.366;5.980;2023-07-22T01:13:02;101250.19;;;13.25;65.08
69574;BME280;62840;52.366;5.980;2023-07-22T01:15:28;101241.31;;;13.24;65.12
69574;BME280;62840;52.366;5.980;2023-07-22T01:17:54;101243.13;;;13.24;65.15
69574;BME280;62840;52.366;5.980;2023-07-22T01:20:21;101237.78;;;13.24;65.43
69574;BME280;62840;52.366;5.980;2023-07-22T01:22:52;101245.69;;;13.25;65.49
69574;BME280;62840;52.366;5.980;2023-07-22T01:25:20;101243.84;;;13.26;65.42
69574;BME280;62840;52.366;5.980;2023-07-22T01:27:45;101247.25;;;13.28;65.48
69574;BME280;62840;52.366;5.980;2023-07-22T01:30:11;101241.72;;;13.29;65.29
69574;BME280;62840;52.366;5.980;2023-07-22T01:32:37;101231.91;;;13.30;65.79
69574;BME280;62840;52.366;5.980;2023-07-22T01:35:04;101246.25;;;13.29;65.52
69574;BME280;62840;52.366;5.980;2023-07-22T01:37:30;101235.53;;;13.29;65.84
69574;BME280;62840;52.366;5.980;2023-07-22T01:39:59;101233.84;;;13.28;65.78
69574;BME280;62840;52.366;5.980;2023-07-22T01:42:25;101233.13;;;13.26;65.80
69574;BME280;62840;52.366;5.980;2023-07-22T01:44:51;101235.81;;;13.26;65.99
69574;BME280;62840;52.366;5.980;2023-07-22T04:51:01;101214.66;;;12.92;68.45
69574;BME280;62840;52.366;5.980;2023-07-22T04:53:26;101217.06;;;12.95;68.36
69574;BME280;62840;52.366;5.980;2023-07-22T04:55:52;101214.09;;;12.98;68.29
69574;BME280;62840;52.366;5.980;2023-07-22T04:58:18;101218.09;;;13.04;68.59
69574;BME280;62840;52.366;5.980;2023-07-22T05:00:43;101218.69;;;13.07;68.36
69574;BME280;62840;52.366;5.980;2023-07-22T05:03:09;101214.03;;;13.09;68.49
69574;BME280;62840;52.366;5.980;2023-07-22T05:05:35;101207.41;;;13.13;68.51
69574;BME280;62840;52.366;5.980;2023-07-22T05:08:03;101208.84;;;13.18;68.49
69574;BME280;62840;52.366;5.980;2023-07-22T05:10:29;101212.13;;;13.21;68.82
69574;BME280;62840;52.366;5.980;2023-07-22T05:12:55;101214.22;;;13.27;68.48
69574;BME280;62840;52.366;5.980;2023-07-22T05:15:21;101215.53;;;13.33;68.64
69574;BME280;62840;52.366;5.980;2023-07-22T05:17:46;101222.31;;;13.37;68.51
69574;BME280;62840;52.366;5.980;2023-07-22T05:20:12;101218.41;;;13.41;68.55
69574;BME280;62840;52.366;5.980;2023-07-22T05:22:38;101226.03;;;13.46;68.52
69574;BME280;62840;52.366;5.980;2023-07-22T05:25:08;101222.94;;;13.50;68.65
69574;BME280;62840;52.366;5.980;2023-07-22T05:27:34;101225.06;;;13.56;68.66
69574;BME280;62840;52.366;5.980;2023-07-22T05:30:00;101227.22;;;13.63;68.60
69574;BME280;62840;52.366;5.980;2023-07-22T05:32:28;101221.31;;;13.69;68.74
69574;BME280;62840;52.366;5.980;2023-07-22T05:34:53;101224.41;;;13.74;68.52
69574;BME280;62840;52.366;5.980;2023-07-22T05:37:19;101225.56;;;13.81;68.77
69574;BME280;62840;52.366;5.980;2023-07-22T05:39:45;101223.31;;;13.86;68.63
69574;BME280;62840;52.366;5.980;2023-07-22T05:42:13;101231.78;;;13.91;68.55
69574;BME280;62840;52.366;5.980;2023-07-22T05:44:39;101225.00;;;13.97;68.59
69574;BME280;62840;52.366;5.980;2023-07-22T05:47:05;101230.66;;;14.04;68.32
69574;BME280;62840;52.366;5.980;2023-07-22T05:49:31;101224.75;;;14.10;68.53
69574;BME280;62840;52.366;5.980;2023-07-22T05:51:57;101229.56;;;14.16;68.70
69574;BME280;62840;52.366;5.980;2023-07-22T05:54:23;101229.00;;;14.22;68.58
69574;BME280;62840;52.366;5.980;2023-07-22T05:56:48;101228.41;;;14.28;68.29
69574;BME280;62840;52.366;5.980;2023-07-22T05:59:17;101229.53;;;14.35;68.32
69574;BME280;62840;52.366;5.980;2023-07-22T06:01:42;101230.69;;;14.43;68.75
69574;BME280;62840;52.366;5.980;2023-07-22T06:04:08;101221.34;;;14.47;68.59
69574;BME280;62840;52.366;5.980;2023-07-22T06:06:34;101226.13;;;14.53;68.25
69574;BME280;62840;52.366;5.980;2023-07-22T06:09:01;101224.56;;;14.60;68.00
69574;BME280;62840;52.366;5.980;2023-07-22T06:11:26;101228.41;;;14.67;68.05
69574;BME280;62840;52.366;5.980;2023-07-22T06:13:52;101215.41;;;14.72;67.74
69574;BME280;62840;52.366;5.980;2023-07-22T06:16:20;101217.53;;;14.78;68.44
69574;BME280;62840;52.366;5.980;2023-07-22T06:18:46;101213.41;;;14.84;68.25
69574;BME280;62840;52.366;5.980;2023-07-22T06:21:12;101209.97;;;14.92;68.14
69574;BME280;62840;52.366;5.980;2023-07-22T06:23:38;101211.09;;;14.99;67.96
69574;BME280;62840;52.366;5.980;2023-07-22T06:26:03;101212.19;;;15.06;67.98
69574;BME280;62840;52.366;5.980;2023-07-22T06:28:29;101215.28;;;15.11;67.92
69574;BME280;62840;52.366;5.980;2023-07-22T06:30:55;101209.31;;;15.17;68.16
69574;BME280;62840;52.366;5.980;2023-07-22T06:33:23;101211.25;;;15.25;68.26
69574;BME280;62840;52.366;5.980;2023-07-22T06:35:49;101217.91;;;15.31;68.03
69574;BME280;62840;52.366;5.980;2023-07-22T06:38:15;101210.91;;;15.38;68.18
69574;BME280;62840;52.366;5.980;2023-07-22T06:40:40;101215.72;;;15.44;68.05
69574;BME280;62840;52.366;5.980;2023-07-22T06:43:06;101211.41;;;15.51;68.42
69574;BME280;62840;52.366;5.980;2023-07-22T06:45:32;101217.88;;;15.58;68.21
69574;BME280;62840;52.366;5.980;2023-07-22T06:47:58;101211.91;;;15.64;67.99
69574;BME280;62840;52.366;5.980;2023-07-22T06:50:27;101213.00;;;15.72;68.26
69574;BME280;62840;52.366;5.980;2023-07-22T06:52:52;101215.81;;;15.80;68.05
69574;BME280;62840;52.366;5.980;2023-07-22T06:55:18;101202.44;;;15.88;67.95
69574;BME280;62840;52.366;5.980;2023-07-22T06:57:44;101214.97;;;15.97;67.83
69574;BME280;62840;52.366;5.980;2023-07-22T07:00:10;101211.66;;;16.03;67.67
69574;BME280;62840;52.366;5.980;2023-07-22T07:02:36;101211.06;;;16.10;67.65
69574;BME280;62840;52.366;5.980;2023-07-22T07:05:02;101205.06;;;16.16;67.36
69574;BME280;62840;52.366;5.980;2023-07-22T07:07:31;101205.25;;;16.22;67.14
69574;BME280;62840;52.366;5.980;2023-07-22T07:09:56;101199.13;;;16.30;67.43
69574;BME280;62840;52.366;5.980;2023-07-22T07:12:22;101204.88;;;16.35;67.47
69574;BME280;62840;52.366;5.980;2023-07-22T07:14:50;101205.09;;;16.42;67.75
69574;BME280;62840;52.366;5.980;2023-07-22T07:17:15;101201.63;;;16.50;67.30
69574;BME280;62840;52.366;5.980;2023-07-22T07:19:41;101204.38;;;16.58;67.30
69574;BME280;62840;52.366;5.980;2023-07-22T07:22:07;101209.13;;;16.64;66.98
69574;BME280;62840;52.366;5.980;2023-07-22T07:24:35;101198.56;;;16.71;66.89
69574;BME280;62840;52.366;5.980;2023-07-22T07:27:01;101204.19;;;16.77;67.02
69574;BME280;62840;52.366;5.980;2023-07-22T07:29:27;101207.94;;;16.84;67.08
69574;BME280;62840;52.366;5.980;2023-07-22T07:31:52;101205.47;;;16.91;66.51
69574;BME280;62840;52.366;5.980;2023-07-22T07:34:18;101208.38;;;16.98;66.49
69574;BME280;62840;52.366;5.980;2023-07-22T07:36:44;101214.13;;;17.03;66.73
69574;BME280;62840;52.366;5.980;2023-07-22T07:39:09;101210.09;;;17.07;66.25
69574;BME280;62840;52.366;5.980;2023-07-22T07:41:38;101206.09;;;17.11;66.05
69574;BME280;62840;52.366;5.980;2023-07-22T07:44:04;101211.97;;;17.15;65.72
69574;BME280;62840;52.366;5.980;2023-07-22T07:46:29;101208.78;;;17.19;65.80
69574;BME280;62840;52.366;5.980;2023-07-22T07:48:56;101207.66;;;17.22;65.31
69574;BME280;62840;52.366;5.980;2023-07-22T07:51:24;101210.84;;;17.25;65.71
69574;BME280;62840;52.366;5.980;2023-07-22T07:53:50;101207.84;;;17.28;65.53
69574;BME280;62840;52.366;5.980;2023-07-22T07:56:17;101207.53;;;17.31;65.38
69574;BME280;62840;52.366;5.980;2023-07-22T07:58:48;101208.91;;;17.36;65.52
69574;BME280;62840;52.366;5.980;2023-07-22T08:01:15;101199.13;;;17.43;64.94
69574;BME280;62840;52.366;5.980;2023-07-22T08:03:42;101191.41;;;17.48;65.20
69574;BME280;62840;52.366;5.980;2023-07-22T08:06:09;101199.00;;;17.52;65.27
69574;BME280;62840;52.366;5.980;2023-07-22T08:08:35;101201.88;;;17.59;65.44
69574;BME280;62840;52.366;5.980;2023-07-22T08:11:03;101194.81;;;17.66;64.93
69574;BME280;62840;52.366;5.980;2023-07-22T08:13:30;101196.19;;;17.70;64.71
69574;BME280;62840;52.366;5.980;2023-07-22T08:15:59;101201.25;;;17.73;64.25
69574;BME280;62840;52.366;5.980;2023-07-22T08:18:26;101191.84;;;17.78;64.36
69574;BME280;62840;52.366;5.980;2023-07-22T08:20:52;101189.50;;;17.83;64.40
69574;BME280;62840;52.366;5.980;2023-07-22T08:23:19;101199.97;;;17.86;64.71
69574;BME280;62840;52.366;5.980;2023-07-22T08:25:44;101197.94;;;17.88;64.43
69574;BME280;62840;52.366;5.980;2023-07-22T08:28:10;101200.28;;;17.91;64.24
69574;BME280;62840;52.366;5.980;2023-07-22T08:30:36;101195.56;;;17.93;64.32
69574;BME280;62840;52.366;5.980;2023-07-22T08:33:04;101198.97;;;17.95;64.83
69574;BME280;62840;52.366;5.980;2023-07-22T08:35:30;101191.53;;;17.97;64.29
69574;BME280;62840;52.366;5.980;2023-07-22T08:37:56;101201.00;;;18.01;63.86
69574;BME280;62840;52.366;5.980;2023-07-22T08:40:22;101196.44;;;18.02;63.95
69574;BME280;62840;52.366;5.980;2023-07-22T08:42:49;101196.97;;;18.05;64.33
69574;BME280;62840;52.366;5.980;2023-07-22T08:45:15;101193.91;;;18.08;64.21
69574;BME280;62840;52.366;5.980;2023-07-22T08:47:45;101181.09;;;18.10;63.77
69574;BME280;62840;52.366;5.980;2023-07-22T08:50:18;101183.44;;;18.13;63.89
69574;BME280;62840;52.366;5.980;2023-07-22T08:52:47;101180.09;;;18.20;63.42
69574;BME280;62840;52.366;5.980;2023-07-22T08:55:14;101187.34;;;18.27;63.46
69574;BME280;62840;52.366;5.980;2023-07-22T08:57:41;101182.97;;;18.34;63.30
69574;BME280;62840;52.366;5.980;2023-07-22T09:00:08;101182.25;;;18.41;63.03
69574;BME280;62840;52.366;5.980;2023-07-22T09:02:34;101175.00;;;18.49;63.02
69574;BME280;62840;52.366;5.980;2023-07-22T09:05:01;101180.56;;;18.56;62.88
69574;BME280;62840;52.366;5.980;2023-07-22T09:07:30;101187.31;;;18.60;62.76
69574;BME280;62840;52.366;5.980;2023-07-22T09:09:57;101175.31;;;18.63;62.25
69574;BME280;62840;52.366;5.980;2023-07-22T09:12:23;101179.19;;;18.68;61.82
69574;BME280;62840;52.366;5.980;2023-07-22T09:14:50;101180.75;;;18.71;61.63
69574;BME280;62840;52.366;5.980;2023-07-22T09:17:17;101175.66;;;18.76;61.42
69574;BME280;62840;52.366;5.980;2023-07-22T09:19:43;101176.16;;;18.80;61.17
69574;BME280;62840;52.366;5.980;2023-07-22T09:22:09;101180.38;;;18.82;60.73
69574;BME280;62840;52.366;5.980;2023-07-22T09:24:37;101170.25;;;18.84;60.48
69574;BME280;62840;52.366;5.980;2023-07-22T09:27:03;101178.34;;;18.84;60.05
69574;BME280;62840;52.366;5.980;2023-07-22T09:29:33;101180.03;;;18.85;60.18
69574;BME280;62840;52.366;5.980;2023-07-22T09:32:00;101169.88;;;18.87;60.30
69574;BME280;62840;52.366;5.980;2023-07-22T09:34:27;101165.16;;;18.89;60.23
69574;BME280;62840;52.366;5.980;2023-07-22T09:36:54;101160.25;;;18.93;59.33
69574;BME280;62840;52.366;5.980;2023-07-22T09:39:21;101163.63;;;18.95;59.38
69574;BME280;62840;52.366;5.980;2023-07-22T09:41:49;101155.00;;;19.00;59.58
69574;BME280;62840;52.366;5.980;2023-07-22T09:44:15;101159.69;;;19.06;59.52
69574;BME280;62840;52.366;5.980;2023-07-22T09:46:41;101150.22;;;19.10;59.35
69574;BME280;62840;52.366;5.980;2023-07-22T09:49:12;101154.41;;;19.12;59.22
69574;BME280;62840;52.366;5.980;2023-07-22T09:51:39;101149.50;;;19.16;58.74
69574;BME280;62840;52.366;5.980;2023-07-22T09:54:06;101151.19;;;19.17;58.68
69574;BME280;62840;52.366;5.980;2023-07-22T09:56:43;101155.41;;;19.20;58.80
69574;BME280;62840;52.366;5.980;2023-07-22T09:59:13;101140.38;;;19.17;58.66
69574;BME280;62840;52.366;5.980;2023-07-22T10:01:40;101149.50;;;19.16;58.91
69574;BME280;62840;52.366;5.980;2023-07-22T10:04:06;101154.94;;;19.16;58.39
69574;BME280;62840;52.366;5.980;2023-07-22T10:06:34;101153.22;;;19.15;58.28
69574;BME280;62840;52.366;5.980;2023-07-22T10:09:03;101154.94;;;19.16;58.16
69574;BME280;62840;52.366;5.980;2023-07-22T10:11:30;101160.34;;;19.16;58.37
69574;BME280;62840;52.366;5.980;2023-07-22T10:13:56;101165.38;;;19.19;58.54
69574;BME280;62840;52.366;5.980;2023-07-22T10:16:25;101162.00;;;19.17;57.94
69574;BME280;62840;52.366;5.980;2023-07-22T10:18:51;101166.75;;;19.15;58.35
69574;BME280;62840;52.366;5.980;2023-07-22T10:21:17;101166.09;;;19.13;57.84
69574;BME280;62840;52.366;5.980;2023-07-22T10:23:44;101163.72;;;19.10;58.07
69574;BME280;62840;52.366;5.980;2023-07-22T10:26:12;101161.38;;;19.07;57.92
69574;BME280;62840;52.366;5.980;2023-07-22T10:28:40;101158.00;;;19.05;58.13
69574;BME280;62840;52.366;5.980;2023-07-22T10:31:07;101161.72;;;19.04;58.50
69574;BME280;62840;52.366;5.980;2023-07-22T10:33:35;101167.13;;;19.04;58.14
69574;BME280;62840;52.366;5.980;2023-07-22T10:36:04;101155.47;;;19.03;58.50
69574;BME280;62840;52.366;5.980;2023-07-22T10:38:32;101160.03;;;19.03;58.83
69574;BME280;62840;52.366;5.980;2023-07-22T10:40:59;101160.41;;;19.00;58.12
69574;BME280;62840;52.366;5.980;2023-07-22T10:43:27;101162.91;;;19.01;58.63
69574;BME280;62840;52.366;5.980;2023-07-22T10:45:57;101165.44;;;19.03;58.34
69574;BME280;62840;52.366;5.980;2023-07-22T10:48:26;101167.13;;;19.04;58.22
69574;BME280;62840;52.366;5.980;2023-07-22T10:50:58;101163.41;;;19.05;58.82
69574;BME280;62840;52.366;5.980;2023-07-22T10:53:30;101167.78;;;19.06;58.59
69574;BME280;62840;52.366;5.980;2023-07-22T10:56:03;101161.38;;;19.07;58.79
69574;BME280;62840;52.366;5.980;2023-07-22T10:58:31;101162.38;;;19.06;58.70
69574;BME280;62840;52.366;5.980;2023-07-22T11:01:21;101156.97;;;19.06;57.87
69574;BME280;62840;52.366;5.980;2023-07-22T11:04:02;101157.19;;;19.04;57.87
69574;BME280;62840;52.366;5.980;2023-07-22T11:06:36;101160.03;;;19.03;58.26
69574;BME280;62840;52.366;5.980;2023-07-22T11:09:02;101161.72;;;19.04;58.05
69574;BME280;62840;52.366;5.980;2023-07-22T11:11:39;101163.41;;;19.05;58.46
69574;BME280;62840;52.366;5.980;2023-07-22T11:14:24;101157.34;;;19.03;58.06
69574;BME280;62840;52.366;5.980;2023-07-22T11:16:52;101155.47;;;19.03;58.50
69574;BME280;62840;52.366;5.980;2023-07-22T11:19:19;101163.41;;;19.05;58.58
69574;BME280;62840;52.366;5.980;2023-07-22T11:21:52;101162.38;;;19.06;58.02
69574;BME280;62840;52.366;5.980;2023-07-22T11:24:19;101149.91;;;19.05;58.33
69574;BME280;62840;52.366;5.980;2023-07-22T11:26:47;101145.50;;;19.04;58.21
69574;BME280;62840;52.366;5.980;2023-07-22T11:29:14;101147.19;;;19.05;58.54
69574;BME280;62840;52.366;5.980;2023-07-22T11:31:42;101145.16;;;19.07;58.46
69574;BME280;62840;52.366;5.980;2023-07-22T11:34:09;101142.63;;;19.05;58.41
69574;BME280;62840;52.366;5.980;2023-07-22T11:36:35;101139.09;;;19.05;58.21
69574;BME280;62840;52.366;5.980;2023-07-22T11:39:06;101138.06;;;19.06;58.35
69574;BME280;62840;52.366;5.980;2023-07-22T11:41:33;101144.34;;;19.06;58.38
69574;BME280;62840;52.366;5.980;2023-07-22T11:44:01;101136.03;;;19.08;58.50
69574;BME280;62840;52.366;5.980;2023-07-22T11:46:28;101143.47;;;19.06;58.76
69574;BME280;62840;52.366;5.980;2023-07-22T11:48:55;101141.78;;;19.05;58.63
69574;BME280;62840;52.366;5.980;2023-07-22T11:51:22;101145.50;;;19.04;58.25
69574;BME280;62840;52.366;5.980;2023-07-22T11:53:51;101149.22;;;19.03;58.18
69574;BME280;62840;52.366;5.980;2023-07-22T11:56:21;101151.25;;;19.01;58.92
69574;BME280;62840;52.366;5.980;2023-07-22T11:58:49;101164.94;;;18.99;58.77
69574;BME280;62840;52.366;5.980;2023-07-22T12:01:15;101209.38;;;18.96;59.42
69574;BME280;62840;52.366;5.980;2023-07-22T12:03:41;101195.03;;;18.88;59.89
69574;BME280;62840;52.366;5.980;2023-07-22T12:06:07;101202.38;;;18.71;60.91
69574;BME280;62840;52.366;5.980;2023-07-22T12:08:34;101196.28;;;18.52;61.88
69574;BME280;62840;52.366;5.980;2023-07-22T12:11:00;101192.91;;;18.34;62.46
69574;BME280;62840;52.366;5.980;2023-07-22T12:13:28;101192.59;;;18.21;63.23
69574;BME280;62840;52.366;5.980;2023-07-22T12:16:00;101184.97;;;18.08;63.54
69574;BME280;62840;52.366;5.980;2023-07-22T12:18:26;101187.50;;;18.01;63.85
69574;BME280;62840;52.366;5.980;2023-07-22T12:20:52;101196.25;;;17.95;64.48
69574;BME280;62840;52.366;5.980;2023-07-22T12:23:18;101190.00;;;17.86;64.67
69574;BME280;62840;52.366;5.980;2023-07-22T12:25:44;101195.22;;;17.80;65.09
69574;BME280;62840;52.366;5.980;2023-07-22T12:28:10;101187.59;;;17.75;65.44
69574;BME280;62840;52.366;5.980;2023-07-22T12:30:38;101183.38;;;17.72;65.34
69574;BME280;62840;52.366;5.980;2023-07-22T12:33:04;101182.00;;;17.68;65.79
69574;BME280;62840;52.366;5.980;2023-07-22T12:35:29;101175.28;;;17.64;65.61
69574;BME280;62840;52.366;5.980;2023-07-22T12:37:55;101178.28;;;17.61;66.04
69574;BME280;62840;52.366;5.980;2023-07-22T12:40:21;101187.56;;;17.59;66.19
69574;BME280;62840;52.366;5.980;2023-07-22T12:42:47;101181.31;;;17.58;66.33
69574;BME280;62840;52.366;5.980;2023-07-22T12:45:13;101168.00;;;17.57;66.51
69574;BME280;62840;52.366;5.980;2023-07-22T12:47:41;101168.84;;;17.57;66.76
69574;BME280;62840;52.366;5.980;2023-07-22T12:50:07;101167.16;;;17.56;66.74
69574;BME280;62840;52.366;5.980;2023-07-22T12:52:34;101169.16;;;17.54;67.02
69574;BME280;62840;52.366;5.980;2023-07-22T12:54:59;101176.59;;;17.52;67.11
69574;BME280;62840;52.366;5.980;2023-07-22T12:57:25;101185.69;;;17.51;67.33
69574;BME280;62840;52.366;5.980;2023-07-22T12:59:51;101178.75;;;17.48;67.34
69574;BME280;62840;52.366;5.980;2023-07-22T13:02:17;101186.00;;;17.48;67.75
69574;BME280;62840;52.366;5.980;2023-07-22T13:04:45;101196.78;;;17.48;67.52
69574;BME280;62840;52.366;5.980;2023-07-22T13:07:11;101194.09;;;17.48;67.70
69574;BME280;62840;52.366;5.980;2023-07-22T13:09:37;101195.81;;;17.49;67.45
69574;BME280;62840;52.366;5.980;2023-07-22T13:12:03;101200.50;;;17.47;67.62
69574;BME280;62840;52.366;5.980;2023-07-22T13:14:29;101191.41;;;17.48;67.72
69574;BME280;62840;52.366;5.980;2023-07-22T13:16:55;101186.00;;;17.48;68.13
69574;BME280;62840;52.366;5.980;2023-07-22T13:19:21;101180.78;;;17.46;68.33
69574;BME280;62840;52.366;5.980;2023-07-22T13:21:49;101176.41;;;17.45;68.05
69574;BME280;62840;52.366;5.980;2023-07-22T13:24:15;101170.16;;;17.45;68.04
69574;BME280;62840;52.366;5.980;2023-07-22T13:26:41;101170.16;;;17.45;68.13
69574;BME280;62840;52.366;5.980;2023-07-22T13:29:06;101163.75;;;17.46;68.31
69574;BME280;62840;52.366;5.980;2023-07-22T13:31:33;101163.06;;;17.44;68.33
69574;BME280;62840;52.366;5.980;2023-07-22T13:33:59;101168.47;;;17.44;68.38
69574;BME280;62840;52.366;5.980;2023-07-22T13:36:25;101166.78;;;17.43;68.31
69574;BME280;62840;52.366;5.980;2023-07-22T13:38:53;101166.78;;;17.43;68.80
69574;BME280;62840;52.366;5.980;2023-07-22T13:41:19;101170.50;;;17.42;68.95
69574;BME280;62840;52.366;5.980;2023-07-22T13:43:45;101167.81;;;17.42;69.05
69574;BME280;62840;52.366;5.980;2023-07-22T13:46:10;101166.78;;;17.43;68.88
69574;BME280;62840;52.366;5.980;2023-07-22T13:48:36;101158.69;;;17.43;68.98
69574;BME280;62840;52.366;5.980;2023-07-22T13:51:02;101167.63;;;17.43;69.01
69574;BME280;62840;52.366;5.980;2023-07-22T13:53:28;101166.78;;;17.43;69.40
69574;BME280;62840;52.366;5.980;2023-07-22T13:55:56;101162.06;;;17.45;69.28
69574;BME280;62840;52.366;5.980;2023-07-22T13:58:22;101157.66;;;17.44;69.35
69574;BME280;62840;52.366;5.980;2023-07-22T14:00:47;101159.38;;;17.45;69.29
69574;BME280;62840;52.366;5.980;2023-07-22T14:03:13;101150.25;;;17.46;69.74
69574;BME280;62840;52.366;5.980;2023-07-22T14:05:39;101155.66;;;17.46;69.54
69574;BME280;62840;52.366;5.980;2023-07-22T14:08:05;101153.97;;;17.45;69.70
69574;BME280;62840;52.366;5.980;2023-07-22T14:10:31;101161.06;;;17.46;69.45
69574;BME280;62840;52.366;5.980;2023-07-22T14:12:59;101164.44;;;17.48;69.51
69574;BME280;62840;52.366;5.980;2023-07-22T14:15:25;101161.06;;;17.46;69.47
69574;BME280;62840;52.366;5.980;2023-07-22T14:17:51;101148.59;;;17.45;70.00
69574;BME280;62840;52.366;5.980;2023-07-22T14:20:16;101154.13;;;17.43;69.83
69574;BME280;62840;52.366;5.980;2023-07-22T14:22:42;101154.47;;;17.40;69.68
69574;BME280;62840;52.366;5.980;2023-07-22T14:25:08;101162.72;;;17.39;69.90
69574;BME280;62840;52.366;5.980;2023-07-22T14:27:34;101156.66;;;17.37;69.67
69574;BME280;62840;52.366;5.980;2023-07-22T14:30:03;101148.91;;;17.34;69.73
69574;BME280;62840;52.366;5.980;2023-07-22T14:32:29;101156.63;;;17.28;69.76
69574;BME280;62840;52.366;5.980;2023-07-22T14:34:55;101143.47;;;17.25;69.72
69574;BME280;62840;52.366;5.980;2023-07-22T14:37:21;101157.97;;;17.24;69.82
69574;BME280;62840;52.366;5.980;2023-07-22T14:39:46;101167.03;;;17.23;69.79
69574;BME280;62840;52.366;5.980;2023-07-22T14:42:12;101159.44;;;17.19;70.13
69574;BME280;62840;52.366;5.980;2023-07-22T14:44:38;101149.84;;;17.16;70.10
69574;BME280;62840;52.366;5.980;2023-07-22T14:47:06;101155.38;;;17.15;70.05
69574;BME280;62840;52.366;5.980;2023-07-22T14:49:32;101153.84;;;17.12;69.92
69574;BME280;62840;52.366;5.980;2023-07-22T14:51:58;101142.56;;;17.08;70.12
69574;BME280;62840;52.366;5.980;2023-07-22T14:54:24;101149.13;;;17.06;70.19
69574;BME280;62840;52.366;5.980;2023-07-22T14:56:49;101132.97;;;17.06;70.30
69574;BME280;62840;52.366;5.980;2023-07-22T14:59:16;101126.91;;;17.04;70.33
69574;BME280;62840;52.366;5.980;2023-07-22T15:01:42;101130.56;;;17.03;70.38
69574;BME280;62840;52.366;5.980;2023-07-22T15:04:10;101134.97;;;17.04;70.44
69574;BME280;62840;52.366;5.980;2023-07-22T15:06:36;101134.09;;;17.03;70.65
69574;BME280;62840;52.366;5.980;2023-07-22T15:09:03;101125.88;;;17.05;70.31
69574;BME280;62840;52.366;5.980;2023-07-22T15:11:29;101116.13;;;17.04;70.56
69574;BME280;62840;52.366;5.980;2023-07-22T15:13:55;101123.19;;;17.05;70.53
69574;BME280;62840;52.366;5.980;2023-07-22T15:16:21;101125.88;;;17.05;70.23
69574;BME280;62840;52.366;5.980;2023-07-22T15:18:47;101116.13;;;17.04;70.41
69574;BME280;62840;52.366;5.980;2023-07-22T15:21:15;101115.09;;;17.05;70.76
69574;BME280;62840;52.366;5.980;2023-07-22T15:23:41;101111.41;;;17.06;70.90
69574;BME280;62840;52.366;5.980;2023-07-22T15:26:06;101113.09;;;17.07;70.56
69574;BME280;62840;52.366;5.980;2023-07-22T15:28:32;101114.75;;;17.08;70.65
69574;BME280;62840;52.366;5.980;2023-07-22T15:30:58;101111.06;;;17.09;70.61
69574;BME280;62840;52.366;5.980;2023-07-22T15:33:24;101116.47;;;17.09;70.92
69574;BME280;62840;52.366;5.980;2023-07-22T15:35:49;101116.47;;;17.09;71.17
69574;BME280;62840;52.366;5.980;2023-07-22T15:38:18;101116.47;;;17.09;70.55
69574;BME280;62840;52.366;5.980;2023-07-22T15:40:43;101115.44;;;17.10;71.11
69574;BME280;62840;52.366;5.980;2023-07-22T15:43:09;101115.44;;;17.10;70.80
69574;BME280;62840;52.366;5.980;2023-07-22T15:45:35;101116.13;;;17.12;70.98
69574;BME280;62840;52.366;5.980;2023-07-22T15:48:01;101107.06;;;17.13;71.05
69574;BME280;62840;52.366;5.980;2023-07-22T15:50:26;101106.72;;;17.16;71.24
69574;BME280;62840;52.366;5.980;2023-07-22T15:52:52;101106.72;;;17.16;70.81